Time;durP1;ratioP1;P1;durP2;ratioP2;P2;SDS_P1;SDS_P2;PMS_P1;PMS_P2;Temp;Humidity;BMP_temperature;BMP_pressure;BME280_temperature;BME280_humidity;BME280_pressure;Samples;Min_cycle;Max_cycle;Signal;HPM_P1;HPM_P2
2020/12/28 00:01:35;;;;;;;10.85;3.30;;;21.60;50.90;;;;;;5092991;28;20073;-47
2020/12/28 00:04:02;;;;;;;9.88;3.70;;;21.60;50.80;;;;;;5093543;28;20552;-46
2020/12/28 00:06:28;;;;;;;6.75;3.55;;;21.60;50.70;;;;;;5093601;28;20385;-46
2020/12/28 00:08:55;;;;;;;7.45;3.28;;;21.50;50.70;;;;;;5093731;28;20453;-46
2020/12/28 00:11:21;;;;;;;7.45;3.10;;;21.60;50.80;;;;;;5075899;28;20118;-46
2020/12/28 00:13:48;;;;;;;6.40;3.25;;;21.60;50.80;;;;;;5093813;28;20059;-46
2020/12/28 00:16:16;;;;;;;5.95;3.20;;;21.60;50.80;;;;;;5104329;28;20134;-46
2020/12/28 00:18:43;;;;;;;5.78;3.33;;;21.60;50.90;;;;;;5113831;28;20457;-46
2020/12/28 00:21:10;;;;;;;9.35;2.92;;;21.60;50.90;;;;;;5111724;28;20062;-46
2020/12/28 00:23:36;;;;;;;6.47;2.88;;;21.60;50.90;;;;;;5093638;28;20036;-46
2020/12/28 00:26:03;;;;;;;5.72;3.00;;;21.60;50.90;;;;;;5093560;28;20028;-46
2020/12/28 00:28:30;;;;;;;8.43;3.40;;;21.70;50.90;;;;;;5093376;28;20416;-46
2020/12/28 00:30:56;;;;;;;11.88;3.53;;;21.70;50.80;;;;;;5093643;28;20024;-46
2020/12/28 00:33:23;;;;;;;9.95;3.22;;;21.70;50.70;;;;;;5093441;28;20024;-45
2020/12/28 00:35:49;;;;;;;9.07;3.17;;;21.80;50.80;;;;;;5094868;28;20024;-45
2020/12/28 00:38:16;;;;;;;7.03;3.00;;;21.80;50.80;;;;;;5113910;28;20024;-45
2020/12/28 00:40:42;;;;;;;11.52;3.08;;;21.90;50.90;;;;;;5112032;28;20483;-45
2020/12/28 00:43:09;;;;;;;10.82;3.45;;;21.90;50.90;;;;;;5096094;28;20518;-46
2020/12/28 00:45:35;;;;;;;8.77;3.50;;;21.90;51.00;;;;;;5093465;28;20074;-46
2020/12/28 00:48:02;;;;;;;9.45;3.05;;;22.00;51.10;;;;;;5093451;28;20036;-46
2020/12/28 00:50:29;;;;;;;8.23;2.97;;;22.00;51.30;;;;;;5094130;28;20020;-46
2020/12/28 00:52:55;;;;;;;9.80;3.22;;;22.10;51.70;;;;;;5097338;28;20031;-46
2020/12/28 00:55:22;;;;;;;10.45;3.50;;;22.10;52.10;;;;;;5097228;28;20042;-46
2020/12/28 00:57:48;;;;;;;6.75;3.30;;;22.10;53.10;;;;;;5097207;28;20081;-46
2020/12/28 01:00:15;;;;;;;8.82;3.45;;;22.20;52.80;;;;;;5097030;28;20024;-46
2020/12/28 01:02:41;;;;;;;14.38;3.38;;;22.20;53.20;;;;;;5096979;28;20111;-46
2020/12/28 01:05:08;;;;;;;11.23;4.93;;;22.20;53.30;;;;;;5097011;28;20474;-47
2020/12/28 01:07:37;;;;;;;95.32;60.08;;;22.20;53.10;;;;;;5097027;28;20077;-47
2020/12/28 01:10:03;;;;;;;1165.25;770.22;;;22.30;53.30;;;;;;5096641;28;20430;-47
2020/12/28 01:12:33;;;;;;;1616.05;917.17;;;22.30;53.70;;;;;;5091734;28;20027;-47
2020/12/28 01:14:59;;;;;;;1617.65;924.22;;;22.30;54.10;;;;;;5097727;28;20040;-47
2020/12/28 01:17:26;;;;;;;1502.88;897.25;;;22.30;54.40;;;;;;5110138;28;20030;-47
2020/12/28 01:19:52;;;;;;;1455.43;877.40;;;22.30;54.50;;;;;;5097393;28;20078;-47
2020/12/28 01:22:19;;;;;;;1366.35;855.67;;;22.20;54.50;;;;;;5109921;28;20034;-46
2020/12/28 01:24:45;;;;;;;1304.57;838.20;;;22.20;54.50;;;;;;5117038;28;20035;-47
2020/12/28 01:27:12;;;;;;;1265.05;830.75;;;22.20;54.50;;;;;;5116927;28;20377;-47
2020/12/28 01:29:38;;;;;;;1225.55;808.70;;;22.20;54.30;;;;;;5115657;28;20024;-46
2020/12/28 01:32:05;;;;;;;1221.43;811.58;;;22.20;54.40;;;;;;5096268;28;20474;-47
2020/12/28 01:34:31;;;;;;;1167.85;796.78;;;22.10;54.30;;;;;;5096486;28;20039;-47
2020/12/28 01:36:58;;;;;;;1164.65;790.70;;;22.10;54.30;;;;;;5109352;28;20622;-47
2020/12/28 01:39:24;;;;;;;1106.72;775.00;;;22.10;54.30;;;;;;5117364;28;20030;-47
2020/12/28 01:41:51;;;;;;;1107.22;766.85;;;22.00;54.20;;;;;;5116438;28;20039;-47
2020/12/28 01:44:17;;;;;;;1081.05;752.33;;;22.00;54.20;;;;;;5116611;28;20036;-47
2020/12/28 01:46:44;;;;;;;1034.43;739.40;;;21.90;54.20;;;;;;5116666;28;20031;-47
2020/12/28 01:49:11;;;;;;;1000.35;726.20;;;21.90;54.20;;;;;;5116593;28;20027;-47
2020/12/28 01:51:37;;;;;;;988.38;714.72;;;21.90;54.20;;;;;;5097884;28;20023;-47
2020/12/28 01:54:04;;;;;;;966.55;705.35;;;21.80;54.10;;;;;;5108487;28;20031;-48
2020/12/28 01:56:33;;;;;;;944.72;695.83;;;21.80;54.20;;;;;;5095626;28;20055;-47
2020/12/28 01:59:00;;;;;;;909.03;675.17;;;21.70;54.10;;;;;;5095994;28;20035;-47
2020/12/28 02:01:34;;;;;;;885.88;672.65;;;21.60;54.10;;;;;;5095853;28;20107;-46
2020/12/28 02:04:01;;;;;;;872.65;656.55;;;21.60;54.20;;;;;;5095878;28;20085;-47
2020/12/28 02:06:27;;;;;;;847.47;640.63;;;21.50;54.10;;;;;;5104847;28;20416;-48
2020/12/28 02:08:54;;;;;;;827.50;630.03;;;21.50;54.20;;;;;;5095492;28;20080;-48
2020/12/28 02:11:20;;;;;;;820.70;617.60;;;21.50;54.20;;;;;;5095301;28;20381;-47
2020/12/28 02:13:47;;;;;;;802.95;608.13;;;21.40;54.20;;;;;;5095613;28;20028;-47
2020/12/28 02:16:14;;;;;;;780.65;592.40;;;21.40;54.20;;;;;;5095471;28;20492;-48
2020/12/28 02:18:40;;;;;;;763.90;582.40;;;21.30;54.20;;;;;;5095682;28;20376;-47
2020/12/28 02:21:07;;;;;;;732.95;563.55;;;21.20;54.10;;;;;;5095802;28;20024;-47
2020/12/28 02:23:34;;;;;;;722.22;549.92;;;21.20;54.20;;;;;;5095971;28;20020;-48
2020/12/28 02:26:00;;;;;;;709.38;542.63;;;21.10;54.20;;;;;;5099316;28;20055;-47
2020/12/28 02:28:27;;;;;;;701.80;523.90;;;21.10;54.30;;;;;;5115742;28;20053;-47
2020/12/28 02:30:53;;;;;;;673.67;517.90;;;21.00;54.20;;;;;;5116085;28;20060;-47
2020/12/28 02:33:20;;;;;;;665.17;502.80;;;20.90;54.20;;;;;;5115437;28;20031;-47
2020/12/28 02:35:46;;;;;;;630.97;482.88;;;20.90;54.20;;;;;;5115351;28;20019;-47
2020/12/28 02:38:13;;;;;;;627.25;473.70;;;20.90;54.30;;;;;;5116100;28;20368;-47
2020/12/28 02:40:39;;;;;;;633.58;477.77;;;20.80;54.40;;;;;;5115864;28;20031;-47
2020/12/28 02:43:06;;;;;;;595.85;451.50;;;20.80;54.40;;;;;;5109029;28;20460;-47
2020/12/28 02:45:32;;;;;;;600.47;442.38;;;20.70;54.40;;;;;;5095012;28;20028;-47
2020/12/28 02:47:59;;;;;;;569.85;419.85;;;20.60;54.20;;;;;;5094894;28;20064;-47
2020/12/28 02:50:25;;;;;;;567.15;417.75;;;20.60;54.10;;;;;;5095003;28;20024;-47
2020/12/28 02:52:53;;;;;;;544.50;399.92;;;20.50;54.10;;;;;;5076698;28;20036;-47
2020/12/28 02:55:20;;;;;;;547.78;392.05;;;20.50;54.40;;;;;;5095503;28;20085;-48
2020/12/28 02:57:46;;;;;;;526.53;384.70;;;20.50;54.80;;;;;;5099841;28;20067;-48
2020/12/28 03:00:15;;;;;;;510.70;367.42;;;20.40;54.90;;;;;;5101831;28;20028;-47
2020/12/28 03:02:42;;;;;;;506.83;357.92;;;20.40;55.00;;;;;;5094477;28;20482;-47
2020/12/28 03:05:08;;;;;;;486.00;345.90;;;20.50;55.20;;;;;;5094590;28;20078;-47
2020/12/28 03:07:35;;;;;;;471.80;341.02;;;20.50;55.30;;;;;;5094187;28;20377;-48
2020/12/28 03:10:02;;;;;;;457.17;324.30;;;20.50;55.30;;;;;;5094572;28;20457;-47
2020/12/28 03:12:29;;;;;;;457.92;318.17;;;20.60;56.00;;;;;;5109143;28;20023;-47
2020/12/28 03:14:55;;;;;;;432.02;305.15;;;20.60;55.20;;;;;;5114822;28;20043;-49
2020/12/28 03:17:22;;;;;;;431.73;293.17;;;20.80;55.20;;;;;;5115447;28;20461;-48
2020/12/28 03:19:48;;;;;;;413.25;283.45;;;20.90;55.10;;;;;;5114490;28;20015;-48
2020/12/28 03:22:14;;;;;;;407.08;274.45;;;21.00;55.00;;;;;;5114511;28;20027;-48
2020/12/28 03:24:41;;;;;;;389.27;262.17;;;21.10;54.80;;;;;;5108479;28;20417;-49
2020/12/28 03:27:07;;;;;;;385.23;256.23;;;21.20;54.60;;;;;;5094359;28;20020;-49
2020/12/28 03:29:34;;;;;;;359.98;243.95;;;21.30;54.40;;;;;;5094026;28;20024;-48
2020/12/28 03:32:02;;;;;;;350.00;233.50;;;21.40;54.10;;;;;;5094294;28;20020;-49
2020/12/28 03:34:29;;;;;;;339.00;228.10;;;21.50;53.80;;;;;;5094349;28;20063;-49
2020/12/28 03:36:55;;;;;;;320.77;216.73;;;21.70;53.70;;;;;;5094187;28;20031;-49
2020/12/28 03:39:22;;;;;;;313.58;210.40;;;21.70;53.40;;;;;;5098739;28;20484;-49
2020/12/28 03:41:48;;;;;;;296.92;203.90;;;21.80;53.10;;;;;;5114159;28;20020;-48
2020/12/28 03:44:15;;;;;;;284.95;199.73;;;22.00;52.90;;;;;;5114334;28;20031;-48
2020/12/28 03:46:41;;;;;;;273.38;189.73;;;22.00;52.70;;;;;;5114198;28;20062;-48
2020/12/28 03:49:07;;;;;;;266.48;182.55;;;22.10;52.40;;;;;;5114384;28;20020;-49
2020/12/28 03:51:34;;;;;;;247.52;170.00;;;22.20;52.20;;;;;;5112216;28;20103;-48
2020/12/28 03:54:19;;;;;;;241.95;165.93;;;22.30;52.00;;;;;;5095832;28;20032;-48
2020/12/28 03:56:45;;;;;;;237.50;154.85;;;22.40;51.80;;;;;;5094114;28;20027;-48
2020/12/28 03:59:12;;;;;;;225.63;152.32;;;22.40;51.70;;;;;;5094176;28;20059;-49
2020/12/28 04:01:38;;;;;;;218.95;148.93;;;22.50;51.40;;;;;;5101215;28;20024;-49
2020/12/28 04:04:05;;;;;;;216.27;143.23;;;22.60;51.30;;;;;;5114014;28;20036;-47
2020/12/28 04:06:32;;;;;;;217.70;138.43;;;22.60;51.10;;;;;;5109566;28;20396;-46
2020/12/28 04:08:58;;;;;;;195.88;128.88;;;22.70;51.90;;;;;;5093812;28;20024;-45
2020/12/28 04:11:25;;;;;;;190.93;126.32;;;22.70;51.20;;;;;;5075721;28;20407;-45
2020/12/28 04:13:51;;;;;;;190.98;123.68;;;22.80;51.20;;;;;;5108404;28;20618;-46
2020/12/28 04:16:18;;;;;;;179.90;120.05;;;22.80;51.00;;;;;;5114592;28;20503;-46
2020/12/28 04:18:45;;;;;;;173.90;115.10;;;22.80;50.90;;;;;;5095780;28;20372;-46
2020/12/28 04:21:11;;;;;;;171.18;111.35;;;22.90;50.90;;;;;;5114079;28;20104;-46
2020/12/28 04:23:38;;;;;;;168.60;112.43;;;22.90;50.80;;;;;;5114571;28;20058;-46
2020/12/28 04:26:05;;;;;;;164.05;105.28;;;22.90;50.60;;;;;;5115463;28;20027;-47
2020/12/28 04:28:32;;;;;;;153.57;102.93;;;22.90;50.40;;;;;;5103425;28;20066;-46
2020/12/28 04:30:59;;;;;;;147.15;97.88;;;22.90;50.30;;;;;;5097716;28;20077;-46
2020/12/28 04:33:25;;;;;;;148.07;97.80;;;22.90;50.20;;;;;;5097646;28;20024;-46
2020/12/28 04:35:52;;;;;;;139.82;93.57;;;22.90;50.00;;;;;;5097620;28;20174;-46
2020/12/28 04:38:18;;;;;;;134.13;87.53;;;22.90;50.00;;;;;;5106088;28;20023;-45
2020/12/28 04:40:45;;;;;;;122.70;82.68;;;22.90;49.80;;;;;;5117740;28;20038;-46
2020/12/28 04:43:13;;;;;;;125.07;81.97;;;22.90;49.80;;;;;;5117594;28;20197;-46
2020/12/28 04:45:40;;;;;;;117.63;77.80;;;22.90;49.80;;;;;;5117477;28;20365;-46
2020/12/28 04:48:10;;;;;;;123.00;77.25;;;22.90;49.70;;;;;;5118343;28;20023;-46
2020/12/28 04:50:38;;;;;;;108.47;71.90;;;22.90;49.60;;;;;;5117461;28;20375;-46
2020/12/28 04:53:05;;;;;;;103.75;71.38;;;22.80;49.50;;;;;;5108345;28;20481;-46
2020/12/28 04:55:32;;;;;;;98.85;69.43;;;22.80;49.50;;;;;;5096818;28;20034;-45
2020/12/28 04:57:59;;;;;;;96.10;64.78;;;22.80;49.40;;;;;;5097443;28;20020;-46
2020/12/28 05:00:26;;;;;;;99.00;66.50;;;22.80;49.40;;;;;;5097169;28;20110;-46
2020/12/28 05:02:52;;;;;;;95.05;62.65;;;22.80;49.40;;;;;;5109736;28;20073;-45
2020/12/28 05:05:19;;;;;;;88.40;58.38;;;22.80;49.30;;;;;;5117087;28;20097;-46
2020/12/28 05:07:54;;;;;;;92.03;59.25;;;22.70;49.30;;;;;;5102538;28;20418;-46
2020/12/28 05:10:22;;;;;;;84.88;57.65;;;22.70;49.20;;;;;;5096746;28;20032;-47
2020/12/28 05:12:49;;;;;;;79.60;53.33;;;22.70;49.30;;;;;;5077141;28;20029;-46
2020/12/28 05:15:15;;;;;;;81.45;52.28;;;22.70;50.00;;;;;;5076502;28;20049;-46
2020/12/28 05:17:42;;;;;;;74.25;51.40;;;22.70;49.30;;;;;;5076523;28;20028;-47
2020/12/28 05:20:08;;;;;;;73.53;49.80;;;22.60;49.20;;;;;;5076548;28;20031;-47
2020/12/28 05:22:35;;;;;;;68.65;46.90;;;22.60;49.30;;;;;;5059387;28;20025;-46
2020/12/28 05:25:02;;;;;;;72.25;45.88;;;22.70;49.40;;;;;;5076283;28;20036;-47
2020/12/28 05:27:28;;;;;;;67.40;45.42;;;22.70;49.50;;;;;;5116471;28;20020;-46
2020/12/28 05:29:57;;;;;;;59.25;41.42;;;22.70;49.40;;;;;;5117245;28;20015;-46
2020/12/28 05:32:23;;;;;;;58.83;41.05;;;22.70;49.40;;;;;;5116955;28;20051;-46
2020/12/28 05:34:51;;;;;;;59.40;40.47;;;22.80;49.40;;;;;;5117474;28;20404;-47
2020/12/28 05:37:19;;;;;;;54.70;39.15;;;22.80;49.20;;;;;;5116133;28;20019;-46
2020/12/28 05:39:48;;;;;;;53.25;36.33;;;22.90;49.20;;;;;;5116786;28;20464;-46
2020/12/28 05:42:14;;;;;;;51.33;36.42;;;22.90;49.10;;;;;;5078387;28;20032;-46
2020/12/28 05:44:43;;;;;;;51.75;35.83;;;23.00;48.90;;;;;;5096241;28;20065;-46
2020/12/28 05:47:14;;;;;;;48.08;34.38;;;23.10;48.70;;;;;;5096286;28;20035;-45
2020/12/28 05:49:46;;;;;;;46.55;33.15;;;23.20;48.60;;;;;;5096497;28;20101;-46
2020/12/28 05:52:17;;;;;;;46.88;31.77;;;23.20;48.50;;;;;;5108623;28;20040;-45
2020/12/28 05:54:44;;;;;;;43.75;30.48;;;23.30;48.30;;;;;;5098614;28;20076;-45
2020/12/28 05:57:11;;;;;;;42.90;28.45;;;23.30;48.10;;;;;;5098595;28;20109;-46
2020/12/28 05:59:38;;;;;;;37.10;28.30;;;23.40;48.00;;;;;;5096090;28;20347;-46
2020/12/28 06:02:08;;;;;;;38.35;27.30;;;23.40;47.80;;;;;;5095917;28;20020;-46
2020/12/28 06:04:37;;;;;;;38.33;26.02;;;23.40;47.60;;;;;;5095456;28;20575;-46
2020/12/28 06:07:04;;;;;;;38.50;26.25;;;23.50;47.70;;;;;;5095722;28;20025;-46
2020/12/28 06:09:31;;;;;;;35.78;24.30;;;23.50;47.50;;;;;;5095551;28;20024;-46
2020/12/28 06:12:06;;;;;;;34.17;24.13;;;23.50;47.50;;;;;;5078185;28;20428;-46
2020/12/28 06:14:42;;;;;;;35.65;24.25;;;23.50;47.30;;;;;;5095329;28;20036;-46
2020/12/28 06:17:11;;;;;;;34.25;23.67;;;23.50;47.20;;;;;;5095025;28;20024;-46
2020/12/28 06:19:38;;;;;;;29.98;21.98;;;23.50;47.90;;;;;;5095932;28;20020;-46
2020/12/28 06:22:24;;;;;;;30.48;20.65;;;23.50;47.20;;;;;;5095611;28;20024;-46
2020/12/28 06:25:05;;;;;;;29.05;20.55;;;23.50;47.10;;;;;;5096112;28;20059;-47
2020/12/28 06:27:34;;;;;;;36.50;20.50;;;23.40;47.00;;;;;;5095294;28;20020;-46
2020/12/28 06:30:19;;;;;;;29.20;19.15;;;23.40;47.00;;;;;;5095983;28;20031;-45
2020/12/28 06:33:00;;;;;;;27.40;18.65;;;23.40;47.00;;;;;;5095444;28;20489;-46
2020/12/28 06:35:29;;;;;;;22.45;17.38;;;23.30;46.90;;;;;;5095397;28;20031;-46
2020/12/28 06:37:59;;;;;;;27.88;17.83;;;23.30;47.00;;;;;;5095182;28;20034;-46
2020/12/28 06:40:33;;;;;;;23.02;16.75;;;23.20;46.90;;;;;;5095246;28;20051;-46
2020/12/28 06:43:37;;;;;;;26.63;17.58;;;23.20;46.90;;;;;;5106499;28;20100;-46
2020/12/28 06:46:04;;;;;;;29.77;15.70;;;23.10;47.00;;;;;;5095701;28;20123;-47
2020/12/28 18:30:47;;;;;;;6.07;0.90;;;21.60;44.80;;;;;;5090945;27;20964;-47
2020/12/28 18:33:13;;;;;;;6.20;1.15;;;21.50;45.80;;;;;;5091505;28;20078;-47
2020/12/28 18:35:41;;;;;;;7.18;1.38;;;21.60;45.60;;;;;;5089858;28;20027;-47
2020/12/28 18:38:08;;;;;;;4.28;1.08;;;21.70;45.40;;;;;;5091292;28;20090;-47
2020/12/28 18:40:34;;;;;;;4.82;1.00;;;21.80;45.20;;;;;;5090508;28;20491;-47
2020/12/28 18:43:01;;;;;;;4.00;1.20;;;22.00;45.00;;;;;;5090744;28;20477;-48
2020/12/28 18:45:27;;;;;;;2.97;1.17;;;22.10;44.80;;;;;;5091295;28;20020;-47
2020/12/28 18:47:54;;;;;;;4.57;1.00;;;22.30;44.60;;;;;;5090854;28;20032;-48
2020/12/28 18:50:20;;;;;;;5.47;1.17;;;22.40;44.30;;;;;;5091250;28;20032;-48
2020/12/28 18:52:48;;;;;;;3.58;0.90;;;22.60;44.10;;;;;;5090707;28;20407;-48
2020/12/28 18:55:15;;;;;;;3.45;1.00;;;22.70;43.80;;;;;;5089663;28;20031;-48
2020/12/28 18:57:42;;;;;;;3.55;0.98;;;22.90;43.50;;;;;;5090864;28;20039;-48
2020/12/28 19:00:09;;;;;;;4.43;1.10;;;23.10;43.20;;;;;;5090653;28;20535;-48
2020/12/28 19:02:37;;;;;;;3.45;1.10;;;23.30;43.00;;;;;;5090637;28;20468;-48
2020/12/28 19:05:04;;;;;;;1.67;0.75;;;23.40;42.70;;;;;;5090857;28;20021;-48
2020/12/28 19:07:31;;;;;;;4.22;1.10;;;23.60;42.40;;;;;;5090660;28;20025;-48
2020/12/28 19:09:58;;;;;;;4.68;1.00;;;23.80;42.20;;;;;;5090327;28;20036;-48
2020/12/28 19:12:24;;;;;;;4.22;0.90;;;23.90;41.80;;;;;;5090755;28;20032;-48
2020/12/28 19:14:51;;;;;;;3.55;1.00;;;24.10;41.60;;;;;;5090705;28;20029;-48
2020/12/28 19:17:21;;;;;;;3.75;0.77;;;24.30;41.50;;;;;;5090775;28;20107;-48
2020/12/28 19:19:48;;;;;;;2.70;1.00;;;24.50;41.20;;;;;;5090565;28;20476;-48
2020/12/28 19:22:15;;;;;;;1.48;0.80;;;24.60;41.00;;;;;;5090501;28;20024;-48
2020/12/28 19:24:41;;;;;;;4.18;0.88;;;24.70;40.60;;;;;;5090185;28;20464;-48
2020/12/28 19:27:08;;;;;;;4.03;0.90;;;24.90;40.50;;;;;;5090150;28;20023;-48
2020/12/28 19:29:34;;;;;;;5.97;1.00;;;25.00;40.30;;;;;;5090286;28;20099;-48
2020/12/28 19:32:01;;;;;;;1.55;0.75;;;25.20;40.00;;;;;;5090361;28;20502;-48
2020/12/28 19:34:29;;;;;;;2.05;0.98;;;25.40;40.00;;;;;;5087646;28;20032;-47
2020/12/28 19:36:56;;;;;;;2.67;1.13;;;25.50;39.80;;;;;;5085793;28;20025;-48
2020/12/28 19:39:23;;;;;;;10.05;1.60;;;25.60;39.80;;;;;;5088916;28;20431;-48
2020/12/28 19:41:50;;;;;;;5.00;1.10;;;25.60;39.50;;;;;;5077554;28;20028;-47
2020/12/28 19:44:21;;;;;;;6.05;0.80;;;25.70;39.30;;;;;;5076574;28;20517;-47
2020/12/28 19:46:49;;;;;;;6.30;0.90;;;25.80;39.30;;;;;;5076484;28;20036;-48
2020/12/28 19:49:16;;;;;;;2.95;0.90;;;25.80;39.20;;;;;;5076615;28;20468;-48
2020/12/28 19:51:43;;;;;;;5.07;1.27;;;25.90;39.20;;;;;;5076388;28;20024;-48
2020/12/28 19:54:09;;;;;;;5.40;1.10;;;25.80;38.80;;;;;;5063195;28;20052;-49
2020/12/28 19:56:36;;;;;;;9.45;1.20;;;25.80;38.80;;;;;;5056353;28;20025;-47
2020/12/28 19:59:16;;;;;;;10.25;1.50;;;25.90;38.80;;;;;;5068148;28;20060;-47
2020/12/28 20:01:43;;;;;;;5.35;1.25;;;25.90;38.80;;;;;;5076134;28;20375;-48
2020/12/28 20:04:10;;;;;;;9.90;1.50;;;25.90;38.80;;;;;;5073704;28;20400;-48
2020/12/28 20:06:36;;;;;;;5.57;1.20;;;25.90;38.80;;;;;;5067014;28;20368;-47
2020/12/28 20:09:03;;;;;;;7.35;1.30;;;25.90;38.80;;;;;;5055804;28;20040;-47
2020/12/28 20:11:30;;;;;;;6.22;1.30;;;25.90;38.80;;;;;;5068505;28;20046;-47
2020/12/28 20:13:57;;;;;;;7.57;1.40;;;26.00;38.90;;;;;;5076112;28;20052;-47
2020/12/28 20:16:23;;;;;;;8.80;1.30;;;26.00;38.80;;;;;;5075951;28;20435;-48
2020/12/28 20:18:50;;;;;;;14.43;1.73;;;26.10;38.90;;;;;;5075698;28;20028;-48
2020/12/28 20:21:21;;;;;;;15.25;1.70;;;26.10;38.80;;;;;;5075960;28;20083;-47
2020/12/28 20:23:49;;;;;;;17.83;1.52;;;26.20;38.60;;;;;;5062641;28;20360;-48
2020/12/28 20:26:16;;;;;;;6.97;1.10;;;26.20;38.50;;;;;;5055753;28;20451;-47
2020/12/28 20:28:43;;;;;;;3.63;1.05;;;26.30;38.60;;;;;;5055573;28;20122;-47
2020/12/28 20:31:10;;;;;;;7.43;1.33;;;26.40;38.60;;;;;;5055678;28;20029;-47
2020/12/28 20:33:40;;;;;;;11.65;1.33;;;26.40;38.60;;;;;;5055856;28;20033;-48
2020/12/28 20:36:06;;;;;;;7.90;1.10;;;26.50;38.50;;;;;;5071968;28;20024;-48
2020/12/28 20:38:36;;;;;;;8.48;1.50;;;26.50;38.40;;;;;;5075207;28;20024;-48
2020/12/28 20:41:03;;;;;;;6.97;1.42;;;26.50;39.10;;;;;;5075438;28;20024;-48
2020/12/28 20:43:30;;;;;;;3.28;1.13;;;26.60;38.40;;;;;;5075741;28;20116;-48
2020/12/28 20:45:56;;;;;;;5.38;0.95;;;26.60;38.40;;;;;;5075470;28;20024;-48
2020/12/28 20:48:24;;;;;;;7.70;1.20;;;26.70;38.40;;;;;;5074996;28;20495;-48
2020/12/28 20:50:53;;;;;;;6.30;0.90;;;26.70;38.40;;;;;;5075344;28;20025;-48
2020/12/28 20:53:19;;;;;;;4.45;1.00;;;26.70;38.50;;;;;;5074222;28;20028;-48
2020/12/28 20:55:46;;;;;;;9.52;1.90;;;26.80;38.40;;;;;;5075228;28;20456;-48
2020/12/28 20:58:17;;;;;;;20.30;1.90;;;26.80;38.50;;;;;;5074340;28;20074;-48
2020/12/28 21:00:49;;;;;;;8.13;1.35;;;26.90;38.20;;;;;;5072121;28;20529;-48
2020/12/28 21:03:16;;;;;;;7.70;1.20;;;26.90;38.20;;;;;;5074723;28;20032;-49
2020/12/28 21:05:43;;;;;;;12.93;1.30;;;26.90;38.30;;;;;;5074944;28;20082;-48
2020/12/28 21:08:10;;;;;;;6.65;1.08;;;26.90;38.30;;;;;;5074938;28;20036;-48
2020/12/28 21:10:42;;;;;;;3.90;1.00;;;26.90;38.30;;;;;;5074852;28;20037;-48
2020/12/28 21:13:09;;;;;;;8.43;1.33;;;26.90;38.30;;;;;;5074548;28;20106;-48
2020/12/28 21:15:36;;;;;;;8.20;1.23;;;27.00;38.40;;;;;;5074605;28;20060;-48
2020/12/28 21:18:03;;;;;;;9.43;1.10;;;27.00;38.50;;;;;;5074682;28;20024;-48
2020/12/28 21:20:30;;;;;;;6.63;1.00;;;27.00;38.50;;;;;;5074751;28;20039;-48
2020/12/28 21:22:56;;;;;;;4.43;0.98;;;27.00;38.50;;;;;;5074334;28;20034;-48
2020/12/28 21:25:23;;;;;;;7.32;1.10;;;27.10;38.60;;;;;;5073757;28;20099;-48
2020/12/28 21:27:50;;;;;;;6.72;1.25;;;27.10;38.60;;;;;;5074057;28;20028;-48
2020/12/28 21:30:16;;;;;;;6.15;0.85;;;27.10;38.50;;;;;;5074706;28;20083;-47
2020/12/28 21:32:43;;;;;;;10.00;0.88;;;27.20;38.50;;;;;;5074548;28;20020;-47
2020/12/28 21:35:10;;;;;;;6.90;1.02;;;27.30;38.60;;;;;;5072973;28;20380;-47
2020/12/28 21:37:37;;;;;;;7.38;1.30;;;27.30;38.50;;;;;;5074322;28;20023;-48
2020/12/28 21:40:06;;;;;;;7.57;1.08;;;27.30;38.40;;;;;;5074625;28;20017;-48
2020/12/28 21:42:37;;;;;;;6.68;0.88;;;27.30;38.40;;;;;;5074282;28;20020;-48
2020/12/28 21:45:08;;;;;;;5.05;0.90;;;27.40;38.30;;;;;;5074584;28;20024;-48
2020/12/28 21:47:35;;;;;;;3.35;0.90;;;27.40;38.30;;;;;;5074395;28;20074;-48
2020/12/28 21:50:03;;;;;;;6.45;0.98;;;27.40;38.30;;;;;;5074267;28;20024;-48
2020/12/28 21:52:29;;;;;;;2.70;0.90;;;27.40;38.30;;;;;;5074171;28;20107;-47
2020/12/28 21:54:56;;;;;;;7.43;0.80;;;27.40;38.30;;;;;;5074197;28;20127;-47
2020/12/28 21:57:22;;;;;;;4.55;0.90;;;27.40;38.20;;;;;;5074366;28;20035;-48
2020/12/28 21:59:49;;;;;;;2.30;0.70;;;27.40;38.30;;;;;;5074212;28;20033;-48
2020/12/28 22:02:38;;;;;;;1.52;0.65;;;27.30;38.20;;;;;;5074153;28;20020;-48
2020/12/28 22:05:07;;;;;;;5.38;0.88;;;27.30;38.30;;;;;;5072737;28;20017;-48
2020/12/28 22:07:35;;;;;;;4.35;0.82;;;27.30;38.20;;;;;;5073168;28;20058;-48
2020/12/28 22:10:06;;;;;;;9.60;4.22;;;27.20;38.10;;;;;;5072834;28;20036;-47
2020/12/28 22:12:33;;;;;;;5.07;1.35;;;27.20;38.30;;;;;;5073780;28;20107;-47
2020/12/28 22:15:03;;;;;;;8.27;1.70;;;27.20;38.30;;;;;;5073604;28;20036;-48
2020/12/28 22:17:29;;;;;;;10.77;1.90;;;27.10;38.20;;;;;;5073052;28;20074;-48
2020/12/28 22:19:56;;;;;;;4.07;1.50;;;27.10;38.30;;;;;;5073546;28;20029;-47
2020/12/28 22:22:22;;;;;;;6.97;1.73;;;27.10;38.40;;;;;;5073548;28;20111;-48
2020/12/28 22:24:49;;;;;;;6.45;1.63;;;27.10;38.50;;;;;;5073515;28;20091;-47
2020/12/28 22:27:15;;;;;;;6.63;1.65;;;27.00;38.50;;;;;;5072953;28;20028;-47
2020/12/28 22:29:42;;;;;;;8.13;1.77;;;27.00;38.70;;;;;;5073310;28;20492;-48
2020/12/28 22:32:08;;;;;;;8.00;1.60;;;27.00;38.70;;;;;;5073268;28;20035;-48
2020/12/28 22:34:35;;;;;;;8.20;1.52;;;27.00;38.70;;;;;;5073722;28;20511;-48
2020/12/28 22:37:01;;;;;;;5.80;1.50;;;27.00;38.70;;;;;;5073353;28;20021;-48
2020/12/28 22:39:28;;;;;;;5.55;1.65;;;27.00;38.80;;;;;;5073395;28;20040;-48
2020/12/28 22:41:54;;;;;;;7.10;1.52;;;27.00;38.90;;;;;;5072970;28;20468;-47
2020/12/28 22:44:21;;;;;;;6.47;1.77;;;27.10;38.90;;;;;;5073050;28;20033;-47
2020/12/28 22:46:49;;;;;;;3.42;1.40;;;27.10;39.00;;;;;;5072805;28;20028;-47
2020/12/28 22:49:16;;;;;;;5.30;1.50;;;27.20;39.10;;;;;;5060074;28;20064;-47
2020/12/28 22:51:43;;;;;;;9.98;1.60;;;27.20;39.10;;;;;;5072997;28;20033;-48
2020/12/28 22:54:13;;;;;;;2.92;1.20;;;27.30;39.10;;;;;;5073112;28;20028;-48
2020/12/28 22:56:45;;;;;;;7.18;1.88;;;27.30;39.10;;;;;;5073205;28;20024;-48
2020/12/28 22:59:11;;;;;;;7.15;1.60;;;27.40;39.00;;;;;;5073087;28;20380;-48
2020/12/28 23:01:38;;;;;;;5.40;1.38;;;27.40;39.60;;;;;;5073014;28;20528;-48
2020/12/28 23:04:04;;;;;;;3.38;1.30;;;27.40;38.90;;;;;;5073070;28;20020;-48
2020/12/28 23:06:32;;;;;;;4.70;1.38;;;27.40;38.80;;;;;;5073214;28;20060;-48
2020/12/28 23:09:00;;;;;;;4.43;1.30;;;27.40;38.80;;;;;;5072948;28;20464;-48
2020/12/28 23:11:27;;;;;;;3.35;1.20;;;27.40;38.80;;;;;;5072936;28;20443;-48
2020/12/28 23:13:54;;;;;;;4.25;1.27;;;27.40;38.90;;;;;;5072317;28;20033;-47
2020/12/28 23:16:21;;;;;;;4.68;1.40;;;27.40;38.90;;;;;;5075062;28;20024;-48
2020/12/28 23:18:53;;;;;;;4.63;1.30;;;27.40;38.80;;;;;;5076805;28;20028;-48
2020/12/28 23:21:23;;;;;;;2.38;1.10;;;27.30;38.70;;;;;;5077068;28;20055;-48
2020/12/28 23:23:51;;;;;;;5.00;1.02;;;27.30;38.80;;;;;;5077097;28;20197;-48
2020/12/28 23:26:18;;;;;;;2.45;1.00;;;27.30;38.80;;;;;;5076596;28;20032;-48
2020/12/28 23:28:48;;;;;;;5.50;1.15;;;27.30;38.80;;;;;;5075807;28;20105;-48
2020/12/28 23:31:17;;;;;;;4.72;1.30;;;27.30;38.80;;;;;;5076577;28;20028;-48
2020/12/28 23:33:44;;;;;;;3.38;1.05;;;27.20;38.80;;;;;;5076399;28;20021;-48
2020/12/28 23:36:12;;;;;;;1.67;0.88;;;27.20;38.90;;;;;;5076734;28;20059;-48
2020/12/28 23:38:39;;;;;;;2.80;0.93;;;27.20;38.80;;;;;;5076682;28;20483;-48
2020/12/28 23:41:11;;;;;;;4.75;1.38;;;27.20;38.90;;;;;;5075997;28;20368;-47
2020/12/28 23:43:38;;;;;;;4.10;0.93;;;27.20;38.90;;;;;;5065810;28;20471;-48
2020/12/28 23:46:10;;;;;;;2.67;1.00;;;27.10;38.80;;;;;;5076591;28;20478;-48
2020/12/28 23:48:36;;;;;;;3.95;0.93;;;27.10;38.80;;;;;;5076563;28;20017;-48
2020/12/28 23:51:03;;;;;;;2.40;0.82;;;27.00;38.70;;;;;;5076731;28;20048;-48
2020/12/28 23:53:30;;;;;;;1.92;0.90;;;27.00;38.80;;;;;;5076497;28;20578;-48
2020/12/28 23:55:57;;;;;;;3.58;1.00;;;27.00;39.00;;;;;;5076070;28;20032;-47
2020/12/28 23:58:23;;;;;;;2.92;0.95;;;26.90;38.90;;;;;;5076047;28;20048;-48
